Terminal Aerodrome Forecast
Issued by NWS

Current Version | Previous Version | Text Only | Print | Product List | Glossary On
Versions: 1 2 3 4 5 6 7 8 9 10 11 12 13 14 15 16 17 18 19
808
FTUS44 KLZK 272321
TAFBPK
TAF
KBPK 272321Z 2800/2824 VRB04KT P6SM VCTS BKN050CB BKN250
      TEMPO 2800/2804 4SM -TSRA BR BKN020CB
     FM280600 00000KT P6SM VCFG SCT250
      TEMPO 2809/2813 3SM BR
     FM281500 32006KT P6SM VCTS SCT050CB=

USA.gov is the U.S. government's official web portal to all federal, state and local government web resources and services.